Time;durP1;ratioP1;P1;durP2;ratioP2;P2;SDS_P1;SDS_P2;PMS_P1;PMS_P2;Temp;Humidity;BMP_temperature;BMP_pressure;BME280_temperature;BME280_humidity;BME280_pressure;Samples;Min_cycle;Max_cycle;Signal;HPM_P1;HPM_P2
2021/05/07 00:01:01;;;;;;;2.77;1.30;;;9.60;99.90;;;;;;5072923;28;20974;-51
2021/05/07 00:03:28;;;;;;;1.30;1.20;;;9.80;99.90;;;;;;5071865;28;20478;-51
2021/05/07 00:05:55;;;;;;;1.47;1.00;;;9.80;99.90;;;;;;5072510;28;20443;-51
2021/05/07 00:08:25;;;;;;;1.20;0.90;;;10.00;99.90;;;;;;5073027;28;20936;-51
2021/05/07 00:10:52;;;;;;;1.27;1.17;;;9.90;99.90;;;;;;5072946;28;20982;-50
2021/05/07 00:13:19;;;;;;;1.37;0.97;;;9.90;99.90;;;;;;5072578;28;20489;-51
2021/05/07 00:15:46;;;;;;;2.40;1.30;;;10.00;99.90;;;;;;5072503;28;20830;-52
2021/05/07 00:18:12;;;;;;;1.77;0.90;;;9.90;99.90;;;;;;5073193;28;20494;-51
2021/05/07 00:20:39;;;;;;;1.83;1.70;;;9.80;99.90;;;;;;5073178;28;20458;-50
2021/05/07 00:23:06;;;;;;;1.20;1.10;;;9.70;99.90;;;;;;5072643;28;20475;-51
2021/05/07 00:25:32;;;;;;;1.83;1.10;;;9.70;99.90;;;;;;5071681;28;20924;-50
2021/05/07 00:28:00;;;;;;;1.50;1.10;;;9.80;99.90;;;;;;5072263;28;20458;-51
2021/05/07 00:30:27;;;;;;;3.37;1.53;;;9.90;99.90;;;;;;5072528;28;20983;-50
2021/05/07 00:32:54;;;;;;;1.50;1.27;;;9.80;99.90;;;;;;5072322;28;20478;-50
2021/05/07 00:35:21;;;;;;;1.87;1.43;;;9.80;99.90;;;;;;5067356;28;20446;-50
2021/05/07 00:37:47;;;;;;;4.53;2.00;;;9.70;99.90;;;;;;5072523;28;20487;-50
2021/05/07 00:40:14;;;;;;;1.53;1.03;;;9.80;99.90;;;;;;5072320;28;20461;-51
2021/05/07 00:42:41;;;;;;;1.17;0.97;;;9.70;99.90;;;;;;5072386;28;20463;-51
2021/05/07 00:45:09;;;;;;;2.70;1.60;;;9.60;99.90;;;;;;5071588;28;20473;-50
2021/05/07 00:47:38;;;;;;;2.73;1.10;;;9.60;99.90;;;;;;5072333;28;20453;-50
2021/05/07 00:50:06;;;;;;;3.17;1.27;;;9.60;99.90;;;;;;5071694;28;20482;-49
2021/05/07 00:52:34;;;;;;;2.20;1.00;;;9.80;99.90;;;;;;5071339;28;20547;-50
2021/05/07 00:55:02;;;;;;;3.63;1.00;;;9.80;99.90;;;;;;5072033;28;20457;-49
2021/05/07 00:57:29;;;;;;;1.37;1.27;;;9.80;99.90;;;;;;5071450;28;20447;-51
2021/05/07 00:59:55;;;;;;;1.33;1.07;;;9.70;99.90;;;;;;5072126;28;20454;-51
2021/05/07 01:02:22;;;;;;;5.53;1.20;;;9.70;99.90;;;;;;5072522;28;20454;-50
2021/05/07 01:04:49;;;;;;;2.77;0.97;;;9.80;99.90;;;;;;5071462;28;20549;-51
2021/05/07 01:07:16;;;;;;;1.57;1.10;;;9.70;99.90;;;;;;5071521;28;20446;-50
2021/05/07 01:09:43;;;;;;;1.03;0.93;;;9.60;99.90;;;;;;5071170;28;20458;-51
2021/05/07 01:12:09;;;;;;;1.73;1.00;;;9.40;99.90;;;;;;5072047;28;20798;-51
2021/05/07 01:14:36;;;;;;;3.50;1.30;;;9.40;99.90;;;;;;5071771;28;20461;-50
2021/05/07 01:17:03;;;;;;;1.30;1.13;;;9.40;99.90;;;;;;5071634;28;20454;-51
2021/05/07 01:19:30;;;;;;;3.57;1.20;;;9.40;99.90;;;;;;5071470;28;21245;-50
2021/05/07 01:21:57;;;;;;;1.07;0.97;;;9.30;99.90;;;;;;5071750;28;20797;-49
2021/05/07 01:24:25;;;;;;;3.57;1.00;;;9.30;99.90;;;;;;5071425;28;20481;-51
2021/05/07 01:26:52;;;;;;;1.77;1.10;;;9.30;99.90;;;;;;5071179;28;20451;-50
2021/05/07 01:29:19;;;;;;;2.13;1.03;;;9.30;99.90;;;;;;5071579;28;20530;-52
2021/05/07 01:31:47;;;;;;;2.50;1.10;;;9.30;99.90;;;;;;5054585;28;20451;-51
2021/05/07 01:34:14;;;;;;;2.83;1.10;;;9.50;99.90;;;;;;5070918;28;20471;-51
2021/05/07 01:36:40;;;;;;;2.50;1.03;;;9.50;99.90;;;;;;5071326;28;20447;-50
2021/05/07 01:39:08;;;;;;;0.90;0.87;;;9.40;99.90;;;;;;5071483;28;20486;-51
2021/05/07 01:41:34;;;;;;;1.97;1.00;;;9.30;99.90;;;;;;5071862;28;20454;-50
2021/05/07 01:44:01;;;;;;;3.00;1.43;;;9.30;99.90;;;;;;5071140;28;20542;-50
2021/05/07 01:46:27;;;;;;;1.87;1.30;;;9.40;99.90;;;;;;5071382;28;20450;-51
2021/05/07 01:48:54;;;;;;;1.10;1.00;;;9.40;99.90;;;;;;5071449;28;21009;-50
2021/05/07 01:51:20;;;;;;;1.83;1.17;;;9.30;99.90;;;;;;5071481;28;20454;-50
2021/05/07 01:53:47;;;;;;;1.83;1.10;;;9.40;99.90;;;;;;5070887;28;20475;-51
2021/05/07 01:56:14;;;;;;;1.83;1.20;;;9.40;99.90;;;;;;5071553;28;20507;-50
2021/05/07 01:58:41;;;;;;;3.97;1.17;;;9.40;99.90;;;;;;5071313;28;20478;-50
2021/05/07 02:01:07;;;;;;;5.47;1.70;;;9.50;99.90;;;;;;5071388;28;20451;-50
2021/05/07 02:03:34;;;;;;;1.70;1.60;;;9.30;99.90;;;;;;5070100;28;21006;-51
2021/05/07 02:06:00;;;;;;;2.83;1.30;;;9.20;99.90;;;;;;5071136;28;20455;-50
2021/05/07 02:08:27;;;;;;;2.83;1.17;;;9.10;99.90;;;;;;5071573;28;20447;-50
2021/05/07 02:10:53;;;;;;;2.17;1.27;;;9.20;99.90;;;;;;5070913;28;20956;-51
2021/05/07 02:13:20;;;;;;;3.10;1.10;;;9.30;99.90;;;;;;5070698;28;20474;-50
2021/05/07 02:15:47;;;;;;;3.03;1.17;;;9.30;99.90;;;;;;5071145;28;20446;-50
2021/05/07 02:18:14;;;;;;;2.03;1.30;;;9.30;99.90;;;;;;5071336;28;20486;-50
2021/05/07 02:20:41;;;;;;;1.57;1.00;;;9.30;99.90;;;;;;5070915;28;20444;-51
2021/05/07 02:23:08;;;;;;;2.57;1.17;;;9.20;99.90;;;;;;5070508;28;20471;-50
2021/05/07 02:25:35;;;;;;;2.60;1.10;;;9.30;99.90;;;;;;5070439;28;20944;-50
2021/05/07 02:28:01;;;;;;;2.83;1.57;;;9.40;99.90;;;;;;5071357;28;20439;-49
2021/05/07 02:30:30;;;;;;;4.23;1.33;;;9.20;99.90;;;;;;5070041;28;20443;-49
2021/05/07 02:32:58;;;;;;;2.60;1.40;;;9.20;99.90;;;;;;5070323;28;20482;-51
2021/05/07 02:35:25;;;;;;;5.77;1.30;;;9.10;99.90;;;;;;5070315;28;20455;-50
2021/05/07 02:37:52;;;;;;;1.90;1.33;;;9.20;99.90;;;;;;5070752;28;20486;-50
2021/05/07 02:40:18;;;;;;;2.00;1.40;;;9.20;99.90;;;;;;5071276;28;20453;-50
2021/05/07 02:42:45;;;;;;;1.80;1.43;;;9.10;99.90;;;;;;5070695;28;20851;-50
2021/05/07 02:45:12;;;;;;;2.93;1.43;;;9.00;99.90;;;;;;5070597;28;20451;-50
2021/05/07 02:47:41;;;;;;;1.57;1.47;;;8.90;99.90;;;;;;5071107;28;20458;-50
2021/05/07 02:50:09;;;;;;;1.43;1.33;;;8.90;99.90;;;;;;5070730;28;20479;-50
2021/05/07 02:52:37;;;;;;;1.57;1.47;;;9.00;99.90;;;;;;5070943;28;20497;-50
2021/05/07 02:55:05;;;;;;;3.40;1.77;;;9.10;99.90;;;;;;5069295;28;20546;-50
2021/05/07 02:57:31;;;;;;;3.27;1.70;;;9.00;99.90;;;;;;5070471;28;20443;-51
2021/05/07 02:59:58;;;;;;;1.73;1.37;;;8.90;99.90;;;;;;5070984;28;20443;-51
2021/05/07 03:02:24;;;;;;;2.70;2.10;;;9.10;99.90;;;;;;5070850;28;20451;-49
2021/05/07 03:04:51;;;;;;;2.70;1.77;;;9.10;99.90;;;;;;5071717;28;20454;-50
2021/05/07 03:07:19;;;;;;;1.70;1.60;;;9.10;99.90;;;;;;5074120;28;20443;-50
2021/05/07 03:09:45;;;;;;;1.87;1.60;;;9.00;99.90;;;;;;5072902;28;20496;-51
2021/05/07 03:12:12;;;;;;;3.20;1.97;;;9.10;99.90;;;;;;5074213;28;20450;-51
2021/05/07 03:14:40;;;;;;;2.60;1.90;;;9.10;99.90;;;;;;5072730;28;20450;-50
2021/05/07 03:17:07;;;;;;;2.77;2.30;;;9.00;99.90;;;;;;5074415;28;20446;-50
2021/05/07 03:19:33;;;;;;;3.10;2.10;;;8.90;99.90;;;;;;5074049;28;20478;-50
2021/05/07 03:22:01;;;;;;;2.23;2.03;;;8.80;99.90;;;;;;5074037;28;20451;-50
2021/05/07 03:24:27;;;;;;;3.10;2.50;;;8.70;99.90;;;;;;5073877;28;20582;-52
2021/05/07 03:26:54;;;;;;;3.03;1.90;;;8.70;99.90;;;;;;5073370;28;20462;-50
2021/05/07 03:29:20;;;;;;;2.33;2.10;;;8.60;99.90;;;;;;5073581;28;21270;-49
2021/05/07 03:31:47;;;;;;;2.57;2.10;;;8.70;99.90;;;;;;5074347;28;20454;-49
2021/05/07 03:34:14;;;;;;;4.80;2.20;;;8.40;99.90;;;;;;5073239;28;20866;-50
2021/05/07 03:36:40;;;;;;;2.50;2.03;;;8.30;99.90;;;;;;5073750;28;20534;-51
2021/05/07 03:39:08;;;;;;;2.27;1.90;;;8.50;99.90;;;;;;5071230;28;20990;-50
2021/05/07 03:41:34;;;;;;;4.93;2.60;;;8.40;99.90;;;;;;5073457;28;20496;-51
2021/05/07 03:44:01;;;;;;;5.10;2.50;;;8.30;99.90;;;;;;5073544;28;20471;-50
2021/05/07 03:46:27;;;;;;;3.47;1.97;;;8.40;99.90;;;;;;5074097;28;20476;-50
2021/05/07 03:48:54;;;;;;;3.33;2.57;;;8.30;99.90;;;;;;5072905;28;20450;-49
2021/05/07 03:51:20;;;;;;;7.37;3.33;;;8.30;99.90;;;;;;5073764;28;20451;-50
2021/05/07 03:53:47;;;;;;;4.33;2.90;;;8.50;99.90;;;;;;5073457;28;20999;-51
2021/05/07 03:56:14;;;;;;;3.73;2.80;;;8.60;99.90;;;;;;5073484;28;20455;-49
2021/05/07 03:58:41;;;;;;;4.50;2.80;;;8.50;99.90;;;;;;5072990;28;20475;-50
2021/05/07 04:01:08;;;;;;;17.00;5.00;;;8.60;99.90;;;;;;5073389;28;20451;-49
2021/05/07 04:03:35;;;;;;;6.93;4.33;;;8.60;99.90;;;;;;5073529;28;20474;-51
2021/05/07 04:06:01;;;;;;;8.93;3.67;;;8.70;99.90;;;;;;5072588;28;20500;-49
2021/05/07 04:08:32;;;;;;;4.80;3.30;;;8.80;99.90;;;;;;5073417;28;20454;-50
2021/05/07 04:11:03;;;;;;;2.70;2.10;;;8.80;99.90;;;;;;5073053;28;20450;-50
2021/05/07 04:13:39;;;;;;;5.07;2.57;;;8.90;99.90;;;;;;5090197;22;20988;-51
2021/05/07 04:16:07;;;;;;;4.67;3.27;;;8.80;99.90;;;;;;5052199;28;20458;-51
2021/05/07 04:18:34;;;;;;;7.50;2.20;;;8.60;99.90;;;;;;5051996;28;20482;-51
2021/05/07 04:21:00;;;;;;;3.17;1.80;;;8.80;99.90;;;;;;5052807;28;20835;-51
2021/05/07 04:23:27;;;;;;;1.40;1.30;;;8.90;99.90;;;;;;5052631;28;20479;-51
2021/05/07 04:25:54;;;;;;;4.03;1.63;;;8.90;99.90;;;;;;5052901;28;20448;-51
2021/05/07 04:28:21;;;;;;;1.57;1.47;;;8.80;99.90;;;;;;5052387;28;20494;-51
2021/05/07 04:30:49;;;;;;;1.37;1.20;;;8.80;99.90;;;;;;5052688;28;20463;-51
2021/05/07 04:33:15;;;;;;;3.40;1.70;;;8.90;99.90;;;;;;5051819;28;20475;-51
2021/05/07 04:35:42;;;;;;;2.97;1.60;;;8.90;99.90;;;;;;5051994;28;20451;-51
2021/05/07 04:38:09;;;;;;;1.60;1.50;;;8.90;99.90;;;;;;5052558;28;20483;-51
2021/05/07 04:40:36;;;;;;;2.20;1.73;;;9.20;99.90;;;;;;5052015;28;20517;-52
2021/05/07 04:43:03;;;;;;;2.07;1.90;;;9.20;99.90;;;;;;5052386;28;20839;-51
2021/05/07 04:45:30;;;;;;;6.70;1.73;;;8.90;99.90;;;;;;5052203;28;20447;-51
2021/05/07 04:47:58;;;;;;;5.27;2.53;;;8.90;99.90;;;;;;5052165;28;20451;-52
2021/05/07 04:50:24;;;;;;;2.40;2.20;;;8.80;99.90;;;;;;5051007;28;20456;-51
2021/05/07 04:52:51;;;;;;;2.37;1.90;;;8.80;99.90;;;;;;5052180;28;20448;-51
2021/05/07 04:55:18;;;;;;;3.57;1.80;;;8.70;99.90;;;;;;5051990;28;20930;-52
2021/05/07 04:57:44;;;;;;;1.50;1.40;;;8.80;99.90;;;;;;5052305;28;20448;-51
2021/05/07 05:00:12;;;;;;;1.77;1.20;;;9.00;99.90;;;;;;5052291;28;20823;-52
2021/05/07 05:02:38;;;;;;;1.87;1.27;;;9.10;99.90;;;;;;5048951;28;20452;-51
2021/05/07 05:05:07;;;;;;;1.73;1.40;;;9.20;99.90;;;;;;5031873;28;20518;-51
2021/05/07 05:07:34;;;;;;;2.30;2.00;;;9.20;99.90;;;;;;5032130;28;20781;-51
2021/05/07 05:10:01;;;;;;;3.70;1.70;;;9.10;99.90;;;;;;5045797;28;20547;-52
2021/05/07 05:12:27;;;;;;;2.13;1.53;;;9.10;99.90;;;;;;5052035;28;20448;-52
2021/05/07 05:14:54;;;;;;;2.80;1.50;;;9.20;99.90;;;;;;5051525;28;20491;-51
2021/05/07 05:17:20;;;;;;;2.00;1.53;;;9.00;99.90;;;;;;5052025;28;20447;-52
2021/05/07 05:19:47;;;;;;;1.47;1.13;;;8.90;99.90;;;;;;5051525;28;20475;-52
2021/05/07 05:22:17;;;;;;;2.13;1.33;;;9.10;99.90;;;;;;5052137;28;20495;-51
2021/05/07 05:24:44;;;;;;;2.70;1.37;;;9.20;99.90;;;;;;5051354;28;20471;-51
2021/05/07 05:27:11;;;;;;;2.73;1.43;;;9.20;99.90;;;;;;5051123;28;20894;-51
2021/05/07 05:29:37;;;;;;;1.60;1.10;;;9.10;99.90;;;;;;5051341;28;20459;-52
2021/05/07 05:32:05;;;;;;;2.00;1.30;;;9.10;99.90;;;;;;5051631;28;20509;-51
2021/05/07 05:34:35;;;;;;;2.17;1.37;;;9.20;99.90;;;;;;5050860;28;20481;-51
2021/05/07 05:37:01;;;;;;;2.10;1.00;;;9.10;99.90;;;;;;5051106;28;20459;-51
2021/05/07 05:39:29;;;;;;;2.43;1.27;;;9.00;99.90;;;;;;5051466;28;20826;-51
2021/05/07 05:41:57;;;;;;;1.67;1.10;;;8.90;99.90;;;;;;5051397;28;20450;-51
2021/05/07 05:44:24;;;;;;;1.73;1.60;;;8.80;99.90;;;;;;5051440;28;20525;-52
2021/05/07 05:46:51;;;;;;;7.23;1.50;;;8.70;99.90;;;;;;5051070;28;20952;-51
2021/05/07 05:49:18;;;;;;;2.67;1.20;;;8.70;99.90;;;;;;5051078;28;20440;-51
2021/05/07 05:51:44;;;;;;;2.87;1.07;;;8.90;99.90;;;;;;5050713;28;20463;-51
2021/05/07 05:54:11;;;;;;;2.37;1.07;;;8.90;99.90;;;;;;5050920;28;20985;-52
2021/05/07 05:56:39;;;;;;;1.40;1.17;;;8.80;99.90;;;;;;5051135;28;20448;-51
2021/05/07 05:59:05;;;;;;;1.47;1.20;;;8.80;99.90;;;;;;5050825;28;20486;-51
2021/05/07 06:01:32;;;;;;;1.73;1.30;;;8.90;99.90;;;;;;5051002;28;20949;-51
2021/05/07 06:03:58;;;;;;;1.43;1.33;;;9.00;99.90;;;;;;5049297;28;20467;-52
2021/05/07 06:06:25;;;;;;;1.50;1.40;;;9.20;99.90;;;;;;5049509;28;20459;-52
2021/05/07 06:08:52;;;;;;;2.20;1.30;;;9.10;99.90;;;;;;5051253;28;20861;-51
2021/05/07 06:11:18;;;;;;;2.10;1.23;;;9.20;99.90;;;;;;5041192;28;20478;-52
2021/05/07 06:13:46;;;;;;;2.00;1.30;;;9.30;99.90;;;;;;5039151;28;20487;-51
2021/05/07 06:16:12;;;;;;;2.17;1.03;;;9.40;99.90;;;;;;5050096;28;20455;-51
2021/05/07 06:18:39;;;;;;;2.47;1.50;;;9.50;99.90;;;;;;5050680;28;21008;-52
2021/05/07 06:21:06;;;;;;;1.63;1.30;;;9.80;99.90;;;;;;5050547;28;20537;-51
2021/05/07 06:23:32;;;;;;;2.33;1.50;;;10.00;99.90;;;;;;5050969;28;20471;-52
2021/05/07 06:25:59;;;;;;;1.53;1.20;;;9.80;99.90;;;;;;5050924;28;20862;-51
2021/05/07 06:28:26;;;;;;;2.47;1.63;;;9.60;99.90;;;;;;5050899;28;20937;-52
2021/05/07 06:30:57;;;;;;;1.93;1.43;;;9.70;99.90;;;;;;5050915;28;20451;-52
2021/05/07 06:33:24;;;;;;;2.10;1.63;;;9.80;99.90;;;;;;5050835;28;20533;-52
2021/05/07 06:35:50;;;;;;;3.53;1.83;;;9.90;99.90;;;;;;5050593;28;20452;-51
2021/05/07 06:38:17;;;;;;;2.10;1.90;;;10.00;99.90;;;;;;5051067;28;20487;-52
2021/05/07 06:40:43;;;;;;;3.10;1.63;;;9.80;99.90;;;;;;5055030;28;20459;-52
2021/05/07 06:43:10;;;;;;;3.67;1.60;;;9.80;99.90;;;;;;5054565;28;20479;-52
2021/05/07 06:45:37;;;;;;;3.80;2.10;;;9.90;99.90;;;;;;5054831;28;20447;-52
2021/05/07 06:48:07;;;;;;;2.73;2.00;;;10.10;99.90;;;;;;5052353;28;20456;-52
2021/05/07 06:50:33;;;;;;;3.20;1.97;;;10.30;99.90;;;;;;5034418;28;20564;-52
2021/05/07 06:53:00;;;;;;;2.70;1.80;;;10.60;99.90;;;;;;5034571;28;20452;-52
2021/05/07 06:55:27;;;;;;;7.77;4.03;;;10.60;99.90;;;;;;5034174;28;20838;-52
2021/05/07 06:57:54;;;;;;;4.43;3.30;;;10.50;99.90;;;;;;5034280;28;20929;-52
2021/05/07 07:00:20;;;;;;;3.50;2.17;;;10.30;99.90;;;;;;5043357;28;20495;-51
2021/05/07 07:02:47;;;;;;;6.10;2.23;;;10.30;99.90;;;;;;5052105;28;20459;-52
2021/05/07 07:05:15;;;;;;;5.10;2.80;;;10.40;99.90;;;;;;5046766;28;20464;-52
2021/05/07 07:07:42;;;;;;;3.53;2.10;;;10.50;99.90;;;;;;5052960;28;20450;-52
2021/05/07 07:10:10;;;;;;;4.87;2.37;;;10.40;99.90;;;;;;5053829;28;20998;-52
2021/05/07 07:12:36;;;;;;;2.60;1.87;;;10.50;99.90;;;;;;5053767;28;20861;-53
2021/05/07 07:15:03;;;;;;;2.57;1.77;;;10.60;99.90;;;;;;5053516;28;20479;-52
2021/05/07 07:17:32;;;;;;;4.23;3.00;;;10.80;99.90;;;;;;5053858;28;20479;-52
2021/05/07 07:19:58;;;;;;;2.67;2.47;;;10.60;99.90;;;;;;5053639;28;20813;-52
2021/05/07 07:22:25;;;;;;;4.83;2.80;;;10.60;99.90;;;;;;5052749;28;20489;-52
2021/05/07 07:24:52;;;;;;;2.50;2.30;;;10.90;99.90;;;;;;5041196;28;20850;-52
2021/05/07 07:27:18;;;;;;;4.23;2.40;;;10.70;99.90;;;;;;5053327;28;21118;-52
2021/05/07 07:29:45;;;;;;;2.50;2.20;;;10.70;99.90;;;;;;5054023;28;20448;-52
2021/05/07 07:32:12;;;;;;;4.70;2.10;;;10.90;99.90;;;;;;5053885;28;20448;-52
2021/05/07 07:34:40;;;;;;;4.30;2.73;;;11.00;99.90;;;;;;5052109;28;20472;-52
2021/05/07 07:37:06;;;;;;;3.00;2.03;;;11.10;99.90;;;;;;5053431;28;20451;-52
2021/05/07 07:39:33;;;;;;;1.97;1.87;;;11.30;99.90;;;;;;5053872;28;20520;-52
2021/05/07 07:42:00;;;;;;;5.00;2.47;;;11.40;99.90;;;;;;5052884;28;20458;-52
2021/05/07 07:44:26;;;;;;;3.90;2.30;;;11.70;99.90;;;;;;5052630;28;20468;-52
2021/05/07 07:46:53;;;;;;;6.30;2.40;;;11.80;99.90;;;;;;5053334;28;20811;-52
2021/05/07 07:49:19;;;;;;;4.50;2.40;;;11.80;99.90;;;;;;5052598;28;20455;-52
2021/05/07 07:51:46;;;;;;;2.97;2.57;;;11.90;99.90;;;;;;5052645;28;20812;-52
2021/05/07 07:54:12;;;;;;;2.93;2.10;;;12.10;99.90;;;;;;5053786;28;20545;-52
2021/05/07 07:56:40;;;;;;;3.17;2.57;;;12.30;99.90;;;;;;5052764;28;20577;-52
2021/05/07 07:59:07;;;;;;;2.13;1.90;;;12.20;99.90;;;;;;5053323;28;20479;-52
2021/05/07 08:01:34;;;;;;;2.50;1.83;;;12.30;99.90;;;;;;5052766;28;20448;-52
2021/05/07 08:04:02;;;;;;;2.20;1.60;;;12.30;99.90;;;;;;5052724;28;20467;-52
2021/05/07 08:06:28;;;;;;;3.50;1.40;;;12.20;99.90;;;;;;5052114;28;20455;-52
2021/05/07 08:08:55;;;;;;;3.53;1.40;;;12.40;99.90;;;;;;5052938;28;20826;-52
2021/05/07 08:11:21;;;;;;;2.00;1.00;;;12.50;99.90;;;;;;5052957;28;20496;-52
2021/05/07 08:13:49;;;;;;;1.93;0.73;;;12.10;99.90;;;;;;5051958;28;20529;-51
2021/05/07 08:16:15;;;;;;;1.50;0.63;;;10.00;99.90;;;;;;5052301;28;20447;-51
2021/05/07 08:18:42;;;;;;;2.17;0.73;;;9.20;99.90;;;;;;5032864;28;20479;-51
2021/05/07 08:21:08;;;;;;;1.43;0.80;;;8.90;99.90;;;;;;5039271;28;20513;-51
2021/05/07 08:23:35;;;;;;;1.43;0.60;;;8.60;99.90;;;;;;5052542;28;21000;-51
2021/05/07 08:26:02;;;;;;;0.90;0.60;;;8.30;99.90;;;;;;5052583;28;20577;-52
2021/05/07 08:28:28;;;;;;;1.07;0.50;;;8.10;99.90;;;;;;5053255;28;20451;-51
2021/05/07 08:30:55;;;;;;;0.70;0.60;;;7.90;99.90;;;;;;5053147;28;20504;-51
2021/05/07 08:33:22;;;;;;;1.27;0.50;;;7.70;99.90;;;;;;5051998;28;20499;-51
2021/05/07 08:35:48;;;;;;;2.60;0.43;;;7.40;99.90;;;;;;5051973;28;20515;-51
2021/05/07 08:38:15;;;;;;;1.37;0.50;;;7.40;99.90;;;;;;5052023;28;20459;-51
2021/05/07 08:40:41;;;;;;;0.50;0.40;;;7.40;99.90;;;;;;5052567;28;20456;-51
2021/05/07 08:43:08;;;;;;;0.60;0.60;;;7.30;99.90;;;;;;5052493;28;20448;-51
2021/05/07 08:45:35;;;;;;;2.03;0.70;;;7.40;99.90;;;;;;5051930;28;20448;-51
2021/05/07 08:48:05;;;;;;;2.30;0.70;;;7.40;99.90;;;;;;5052085;28;20505;-52
2021/05/07 08:50:32;;;;;;;0.80;0.70;;;7.40;99.90;;;;;;5052280;28;20473;-52
2021/05/07 08:52:58;;;;;;;0.70;0.70;;;7.60;99.90;;;;;;5051212;28;20502;-52
2021/05/07 08:55:25;;;;;;;0.77;0.70;;;7.70;99.90;;;;;;5051305;28;20449;-52
2021/05/07 08:57:51;;;;;;;0.90;0.73;;;7.80;99.90;;;;;;5033002;28;20450;-52
2021/05/07 09:00:19;;;;;;;2.17;1.60;;;8.10;99.90;;;;;;5051797;28;20479;-52
2021/05/07 09:02:45;;;;;;;1.50;1.10;;;8.30;99.90;;;;;;5051339;28;20452;-51
2021/05/07 09:05:13;;;;;;;2.23;1.13;;;8.50;99.90;;;;;;5051773;28;20472;-52
2021/05/07 09:07:40;;;;;;;1.73;1.13;;;8.60;99.90;;;;;;5051898;28;20455;-52
2021/05/07 09:10:07;;;;;;;2.63;0.90;;;8.50;99.90;;;;;;5052041;28;20455;-52
2021/05/07 09:12:36;;;;;;;1.20;1.10;;;8.40;99.90;;;;;;5051254;28;20499;-52
2021/05/07 09:15:05;;;;;;;1.93;0.90;;;8.40;99.90;;;;;;5051180;28;20482;-52
2021/05/07 09:17:34;;;;;;;1.07;0.93;;;8.30;99.90;;;;;;5051745;28;20452;-52
2021/05/07 09:20:10;;;;;;;1.97;0.90;;;8.20;99.90;;;;;;5052133;28;20493;-52
2021/05/07 09:22:39;;;;;;;1.90;0.90;;;8.10;99.90;;;;;;5048479;28;20451;-51
2021/05/07 09:25:11;;;;;;;0.90;0.87;;;8.00;99.90;;;;;;5051555;28;20229;-52
2021/05/07 09:27:38;;;;;;;1.60;0.80;;;8.10;99.90;;;;;;5051179;28;20477;-52
2021/05/07 09:30:10;;;;;;;1.00;0.80;;;7.90;99.90;;;;;;5051845;28;20447;-52
2021/05/07 09:32:37;;;;;;;0.70;0.60;;;8.00;99.90;;;;;;5051342;28;20451;-52
2021/05/07 09:35:08;;;;;;;1.23;0.50;;;7.90;99.90;;;;;;5051018;28;20468;-50
2021/05/07 09:37:35;;;;;;;1.07;0.53;;;7.60;99.90;;;;;;5051446;28;20452;-51
2021/05/07 09:40:17;;;;;;;1.07;0.77;;;7.50;99.90;;;;;;5051452;28;20483;-51
2021/05/07 09:42:44;;;;;;;0.70;0.70;;;7.50;99.90;;;;;;5050947;28;20812;-52
2021/05/07 09:45:24;;;;;;;0.80;0.63;;;7.60;99.90;;;;;;5051112;28;20857;-51
2021/05/07 09:47:51;;;;;;;0.60;0.60;;;7.50;99.90;;;;;;5051695;28;20446;-51
2021/05/07 09:50:20;;;;;;;0.77;0.60;;;7.50;99.90;;;;;;5051146;28;20904;-52
2021/05/07 09:52:50;;;;;;;1.10;0.67;;;7.60;99.90;;;;;;5051235;28;20879;-52
2021/05/07 09:55:19;;;;;;;0.83;0.60;;;7.50;99.90;;;;;;5051100;28;20471;-52
2021/05/07 09:57:46;;;;;;;1.17;0.80;;;7.70;99.90;;;;;;5051081;28;20863;-52
2021/05/07 10:00:13;;;;;;;1.30;0.70;;;7.70;99.90;;;;;;5050310;28;20570;-52
2021/05/07 10:02:40;;;;;;;0.70;0.70;;;7.80;99.90;;;;;;5050417;28;20527;-52
2021/05/07 10:05:07;;;;;;;1.10;0.83;;;7.80;99.90;;;;;;5050771;28;20468;-52
2021/05/07 10:07:34;;;;;;;1.77;0.70;;;8.00;99.90;;;;;;5051349;28;20866;-52
2021/05/07 10:10:06;;;;;;;1.00;0.60;;;8.00;99.90;;;;;;5051336;28;20444;-52
2021/05/07 10:12:34;;;;;;;1.80;0.70;;;7.90;99.90;;;;;;5051109;28;20458;-52
2021/05/07 10:15:02;;;;;;;0.70;0.70;;;8.10;99.90;;;;;;5091744;22;21109;-51
2021/05/07 10:17:28;;;;;;;1.87;0.93;;;8.20;99.90;;;;;;5074911;28;20803;-50
2021/05/07 10:19:55;;;;;;;1.30;0.80;;;8.30;99.90;;;;;;5075196;28;20482;-51
2021/05/07 10:22:26;;;;;;;4.77;1.23;;;8.30;99.90;;;;;;5075366;28;20503;-51
2021/05/07 10:24:53;;;;;;;1.37;1.03;;;8.30;99.90;;;;;;5074524;28;20994;-50
2021/05/07 10:27:21;;;;;;;2.33;1.33;;;8.30;99.90;;;;;;5075080;28;20536;-50
2021/05/07 10:29:56;;;;;;;3.93;1.50;;;8.30;99.90;;;;;;5075038;28;20442;-50
2021/05/07 10:32:33;;;;;;;1.93;1.00;;;8.20;99.90;;;;;;5075268;28;20534;-50
2021/05/07 10:35:00;;;;;;;2.80;1.43;;;8.30;99.90;;;;;;5074529;28;20500;-51
2021/05/07 10:37:39;;;;;;;3.60;1.40;;;8.40;99.90;;;;;;5074551;28;20500;-50
2021/05/07 10:40:07;;;;;;;2.50;1.50;;;8.40;99.90;;;;;;5074809;28;20521;-51
2021/05/07 10:42:34;;;;;;;2.20;1.10;;;8.50;99.90;;;;;;5074644;28;20834;-51
2021/05/07 10:45:02;;;;;;;2.10;1.00;;;8.60;99.90;;;;;;5074693;28;20470;-51
2021/05/07 10:47:33;;;;;;;1.30;1.00;;;8.50;99.90;;;;;;5074914;28;20458;-50
2021/05/07 10:50:00;;;;;;;2.20;0.90;;;8.60;99.90;;;;;;5074025;28;20510;-50
2021/05/07 10:52:38;;;;;;;1.50;0.90;;;8.70;99.90;;;;;;5074691;28;20468;-50
2021/05/07 10:55:07;;;;;;;1.90;0.70;;;8.80;99.90;;;;;;5074216;28;20550;-50
2021/05/07 10:57:36;;;;;;;1.20;0.93;;;8.70;99.90;;;;;;5074302;28;20457;-51
2021/05/07 11:00:08;;;;;;;2.33;1.77;;;8.80;99.90;;;;;;5074275;28;20486;-51
2021/05/07 11:02:45;;;;;;;1.93;1.17;;;8.70;99.90;;;;;;5074635;28;20535;-51
2021/05/07 11:05:12;;;;;;;1.57;1.23;;;8.80;99.90;;;;;;5073858;28;20478;-51
2021/05/07 11:07:50;;;;;;;1.23;0.97;;;8.80;99.90;;;;;;5074204;28;20935;-51
2021/05/07 11:10:16;;;;;;;4.40;0.90;;;8.70;99.90;;;;;;5074513;28;20522;-51
2021/05/07 11:12:44;;;;;;;0.90;0.70;;;8.80;99.90;;;;;;5074405;28;20449;-51
2021/05/07 11:15:16;;;;;;;0.70;0.60;;;8.90;99.90;;;;;;5073601;28;20485;-51
2021/05/07 11:17:43;;;;;;;0.87;0.60;;;9.00;99.90;;;;;;5074385;28;20467;-51
2021/05/07 11:20:11;;;;;;;1.53;0.60;;;8.80;99.90;;;;;;5073964;28;20547;-51
2021/05/07 11:22:39;;;;;;;1.27;0.83;;;8.40;99.90;;;;;;5074383;28;20457;-51
2021/05/07 11:25:07;;;;;;;1.20;0.80;;;8.30;99.90;;;;;;5072277;28;20521;-50
2021/05/07 11:27:36;;;;;;;0.80;0.77;;;8.40;99.90;;;;;;5073927;28;20454;-50
2021/05/07 11:30:08;;;;;;;1.27;0.80;;;8.50;99.90;;;;;;5074074;28;20450;-51
2021/05/07 11:32:35;;;;;;;0.90;0.70;;;8.70;99.90;;;;;;5073839;28;20461;-50
2021/05/07 11:35:07;;;;;;;0.80;0.60;;;8.60;99.90;;;;;;5073882;28;20473;-51
2021/05/07 11:37:34;;;;;;;0.97;0.57;;;8.90;99.90;;;;;;5074107;28;20504;-51
2021/05/07 11:40:06;;;;;;;3.50;1.73;;;9.30;99.90;;;;;;5073473;28;20486;-50
2021/05/07 11:42:34;;;;;;;1.10;1.00;;;9.50;99.90;;;;;;5073551;28;21163;-51
2021/05/07 11:45:01;;;;;;;1.10;0.80;;;9.60;99.90;;;;;;5073381;28;20466;-51
2021/05/07 11:47:32;;;;;;;1.27;1.07;;;9.70;99.90;;;;;;5073700;28;20454;-52
2021/05/07 11:49:59;;;;;;;0.90;0.90;;;9.80;99.90;;;;;;5073435;28;20805;-51
2021/05/07 11:52:33;;;;;;;1.10;1.00;;;9.90;99.90;;;;;;5073423;28;20979;-52
2021/05/07 11:55:00;;;;;;;1.30;1.00;;;9.80;99.90;;;;;;5053374;28;20988;-51
2021/05/07 11:57:30;;;;;;;1.63;1.20;;;9.80;99.90;;;;;;5053374;28;20933;-50
2021/05/07 11:59:57;;;;;;;1.20;1.10;;;10.00;99.90;;;;;;5053588;28;21062;-52
2021/05/07 12:02:25;;;;;;;1.57;0.80;;;9.40;99.90;;;;;;5053552;28;20454;-50
2021/05/07 12:04:52;;;;;;;1.43;0.80;;;9.20;99.90;;;;;;5053114;28;20472;-50
2021/05/07 12:07:27;;;;;;;0.80;0.77;;;9.30;99.90;;;;;;5059521;28;20500;-50
2021/05/07 12:09:55;;;;;;;0.80;0.80;;;9.40;99.90;;;;;;5073249;28;20442;-50
2021/05/07 12:12:21;;;;;;;1.17;0.70;;;9.30;99.90;;;;;;5073117;28;20508;-50
2021/05/07 12:14:51;;;;;;;0.70;0.70;;;9.40;99.90;;;;;;5072951;28;20524;-50
2021/05/07 12:17:20;;;;;;;1.33;0.90;;;9.70;99.90;;;;;;5073132;28;21083;-51
2021/05/07 12:19:58;;;;;;;0.80;0.80;;;10.00;99.90;;;;;;5072344;28;20868;-49
2021/05/07 12:22:24;;;;;;;1.20;1.10;;;9.80;99.90;;;;;;5072374;28;20446;-50
2021/05/07 12:24:52;;;;;;;0.97;0.97;;;9.70;99.90;;;;;;5070013;28;20599;-50
2021/05/07 12:27:29;;;;;;;0.70;0.70;;;9.80;99.90;;;;;;5072530;28;20446;-50
2021/05/07 12:29:56;;;;;;;1.33;0.70;;;9.60;99.90;;;;;;5073900;28;20457;-50
2021/05/07 12:32:23;;;;;;;0.90;0.80;;;9.40;99.90;;;;;;5070962;28;20451;-51
2021/05/07 12:34:58;;;;;;;2.00;1.40;;;9.50;99.90;;;;;;5071926;28;21002;-49
2021/05/07 12:37:24;;;;;;;1.60;1.50;;;9.50;99.90;;;;;;5071699;28;20954;-50
2021/05/07 12:39:52;;;;;;;0.77;0.77;;;9.30;99.90;;;;;;5071559;28;20479;-49
2021/05/07 12:42:18;;;;;;;0.87;0.87;;;9.30;99.90;;;;;;5074264;28;20456;-50
2021/05/07 12:44:45;;;;;;;0.87;0.87;;;9.20;99.90;;;;;;5071102;28;21024;-49
2021/05/07 12:47:11;;;;;;;1.40;1.10;;;9.20;99.90;;;;;;5065040;28;20444;-50
2021/05/07 12:49:38;;;;;;;1.23;0.70;;;9.10;99.90;;;;;;5052245;28;20443;-48
2021/05/07 12:52:05;;;;;;;1.57;0.60;;;9.10;99.90;;;;;;5065311;28;20865;-50
2021/05/07 12:54:31;;;;;;;0.83;0.83;;;9.10;99.90;;;;;;5071827;28;20549;-49
2021/05/07 12:56:59;;;;;;;1.07;0.97;;;9.10;99.90;;;;;;5070980;28;20446;-50